Terminal Aerodrome Forecast
Issued by NWS Omaha/Valley, NE

Home | Current Version | Previous Version | Text Only | Print | Product List | Glossary Off
Versions: 1 2 3 4 5 6 7 8 9 10 11 12 13 14 15 16 17

000
FTUS43 KOAX 300520
TAFOFK
TAF
KOFK 300520Z 3006/3106 17005KT P6SM SCT040 BKN150
      TEMPO 3006/3008 VRB15G25KT 3SM TSRA BKN040CB
     FM301500 18012KT P6SM BKN100 PROB30 3022/3104 3SM TSRA
      BKN040CB=

USA.gov is the U.S. government's official web portal to all federal, state and local government web resources and services.